Time;durP1;ratioP1;P1;durP2;ratioP2;P2;SDS_P1;SDS_P2;PMS_P1;PMS_P2;Temp;Humidity;BMP_temperature;BMP_pressure;BME280_temperature;BME280_humidity;BME280_pressure;Samples;Min_cycle;Max_cycle;Signal;HPM_P1;HPM_P2
2023/04/19 00:02:18;;;;;;;;;23.75;23.00;;;;;13.92;59.20;101580.91;4965270;28;45506;-63
2023/04/19 00:04:44;;;;;;;;;26.25;24.00;;;;;13.83;59.41;101571.34;4980875;28;45621;-63
2023/04/19 00:07:09;;;;;;;;;25.50;24.50;;;;;13.91;59.26;101595.22;4963667;28;45493;-63
2023/04/19 00:09:35;;;;;;;;;25.00;21.50;;;;;13.79;59.63;101576.84;4981627;28;45282;-63
2023/04/19 00:12:01;;;;;;;;;22.75;21.25;;;;;13.84;59.30;101593.69;4980063;28;45338;-63
2023/04/19 00:14:27;;;;;;;;;22.75;22.75;;;;;13.88;59.59;101595.31;4980168;28;46412;-63
2023/04/19 00:16:52;;;;;;;;;23.75;23.75;;;;;13.72;59.52;101560.06;4981297;28;45448;-63
2023/04/19 00:19:17;;;;;;;;;28.75;24.75;;;;;13.85;59.62;101595.47;4981402;28;49961;-63
2023/04/19 00:21:43;;;;;;;;;21.75;21.75;;;;;13.67;59.58;101564.72;4980557;28;45375;-63
2023/04/19 00:24:08;;;;;;;;;26.25;24.50;;;;;13.78;59.35;101589.41;4979734;28;45534;-63
2023/04/19 00:26:33;;;;;;;;;21.00;21.00;;;;;13.76;59.83;101582.31;4979867;28;45402;-63
2023/04/19 00:28:59;;;;;;;;;23.25;21.75;;;;;13.62;60.09;101559.50;4981290;28;45373;-63
2023/04/19 00:31:24;;;;;;;;;21.75;21.75;;;;;13.72;59.91;101576.19;4963311;28;46048;-63
2023/04/19 00:33:50;;;;;;;;;20.50;19.75;;;;;13.79;59.82;101592.97;4979908;28;45622;-63
2023/04/19 00:36:15;;;;;;;;;23.50;22.50;;;;;13.79;59.80;101585.78;4989214;28;45381;-63
2023/04/19 00:38:40;;;;;;;;;22.00;19.50;;;;;13.80;59.64;101589.31;4963626;28;45463;-63
2023/04/19 00:41:06;;;;;;;;;26.50;24.25;;;;;13.74;59.76;101576.13;4981184;28;45451;-63
2023/04/19 00:43:31;;;;;;;;;27.00;24.00;;;;;13.74;59.84;101578.81;4978542;28;46913;-63
2023/04/19 00:45:57;;;;;;;;;23.00;21.75;;;;;13.73;59.41;101579.72;4963943;28;45479;-63
2023/04/19 00:48:22;;;;;;;;;23.50;19.50;;;;;13.75;59.69;101583.22;4980355;28;45660;-63
2023/04/19 00:50:48;;;;;;;;;19.75;18.25;;;;;13.66;59.56;101576.38;4981074;28;45400;-63
2023/04/19 00:53:14;;;;;;;;;23.25;21.50;;;;;13.70;59.92;101578.91;4978350;28;47438;-63
2023/04/19 00:55:41;;;;;;;;;24.00;21.25;;;;;13.58;59.73;101563.22;4968812;28;45738;-63
2023/04/19 00:58:07;;;;;;;;;19.25;18.50;;;;;13.49;59.73;101544.72;4978835;28;45501;-63
2023/04/19 01:00:33;;;;;;;;;22.25;21.00;;;;;13.57;60.01;101564.13;4980573;28;45475;-63
2023/04/19 01:02:58;;;;;;;;;22.25;17.50;;;;;13.65;60.06;101575.50;4981900;28;45436;-63
2023/04/19 01:05:24;;;;;;;;;21.00;21.00;;;;;13.66;60.00;101589.78;4980072;28;45361;-63
2023/04/19 01:07:50;;;;;;;;;22.25;21.25;;;;;13.52;59.97;101564.28;4979323;28;45447;-63
2023/04/19 01:10:15;;;;;;;;;19.75;18.00;;;;;13.67;60.22;101584.38;4980799;28;45552;-63
2023/04/19 01:12:41;;;;;;;;;21.25;20.75;;;;;13.58;59.86;101560.53;4979210;28;45468;-63
2023/04/19 01:15:07;;;;;;;;;19.75;19.75;;;;;13.65;59.91;101570.13;4959656;28;45502;-63
2023/04/19 01:17:33;;;;;;;;;18.50;17.75;;;;;13.62;59.49;101572.91;4962927;28;45435;-63
2023/04/19 01:20:03;;;;;;;;;21.25;20.25;;;;;13.61;59.87;101571.13;4962901;28;45981;-63
2023/04/19 01:22:31;;;;;;;;;21.00;20.00;;;;;13.48;59.57;101559.94;4977931;28;47295;-63
2023/04/19 01:24:57;;;;;;;;;19.50;18.50;;;;;13.53;59.92;101565.13;4979948;28;45430;-63
2023/04/19 01:27:23;;;;;;;;;19.75;18.25;;;;;13.59;59.84;101572.13;4980284;28;45329;-63
2023/04/19 01:29:48;;;;;;;;;21.50;18.25;;;;;13.47;59.99;101554.63;4980217;28;45482;-63
2023/04/19 01:32:14;;;;;;;;;19.25;14.50;;;;;13.49;59.98;101563.50;4977523;28;48189;-63
2023/04/19 01:34:39;;;;;;;;;18.25;18.25;;;;;13.48;60.04;101569.78;4980404;28;45436;-63
2023/04/19 01:37:05;;;;;;;;;19.00;17.75;;;;;13.46;59.65;101568.94;4988637;28;45357;-63
2023/04/19 01:39:31;;;;;;;;;18.25;15.75;;;;;13.30;60.03;101560.47;4979070;28;45597;-63
2023/04/19 01:41:56;;;;;;;;;20.50;19.00;;;;;13.25;60.12;101555.25;4979809;28;46259;-63
2023/04/19 01:44:21;;;;;;;;;17.75;16.00;;;;;13.29;60.06;101566.75;4977844;28;45334;-63
2023/04/19 01:46:47;;;;;;;;;20.50;20.25;;;;;13.18;60.42;101556.38;4979351;28;45639;-63
2023/04/19 01:49:12;;;;;;;;;17.75;16.25;;;;;13.26;60.49;101564.16;4978719;28;45570;-63
2023/04/19 01:51:38;;;;;;;;;21.00;18.00;;;;;13.29;60.28;101574.81;4979609;28;46186;-63
2023/04/19 01:54:03;;;;;;;;;17.75;17.00;;;;;13.20;60.47;101573.28;4961332;28;45569;-63
2023/04/19 01:56:29;;;;;;;;;17.50;16.75;;;;;13.16;60.86;101568.94;4968328;28;45521;-63
2023/04/19 01:58:55;;;;;;;;;20.50;20.50;;;;;13.13;60.51;101564.56;4979889;28;45377;-63
2023/04/19 02:01:23;;;;;;;;;16.00;15.25;;;;;13.09;60.69;101546.78;4979063;28;45613;-63
2023/04/19 02:03:49;;;;;;;;;18.00;18.00;;;;;13.00;60.52;101546.19;4979516;28;45256;-63
2023/04/19 02:06:14;;;;;;;;;17.25;17.00;;;;;13.18;60.45;101571.56;4978520;28;45673;-63
2023/04/19 02:08:40;;;;;;;;;18.75;16.75;;;;;13.11;60.71;101557.47;4979730;28;45453;-63
2023/04/19 02:11:10;;;;;;;;;15.50;15.50;;;;;12.93;60.58;101530.31;4972948;28;47407;-63
2023/04/19 02:13:36;;;;;;;;;15.50;15.00;;;;;13.04;60.70;101554.09;4970717;28;45534;-63
2023/04/19 02:16:02;;;;;;;;;22.75;19.75;;;;;13.09;60.60;101567.34;4974982;28;45963;-63
2023/04/19 02:18:30;;;;;;;;;16.75;15.00;;;;;12.96;60.79;101557.00;4979744;28;45732;-63
2023/04/19 02:20:56;;;;;;;;;16.25;16.00;;;;;12.86;60.90;101536.75;4978869;28;46138;-63
2023/04/19 02:23:22;;;;;;;;;19.25;18.25;;;;;12.97;61.09;101565.91;4975073;28;45445;-63
2023/04/19 02:25:47;;;;;;;;;19.50;16.75;;;;;12.93;61.20;101561.56;4979710;28;45573;-63
2023/04/19 02:28:12;;;;;;;;;19.50;19.50;;;;;12.94;61.08;101569.56;4979146;28;45529;-63
2023/04/19 02:30:38;;;;;;;;;16.00;16.00;;;;;12.88;61.27;101561.72;4977555;28;48567;-63
2023/04/19 02:33:03;;;;;;;;;16.00;14.50;;;;;12.89;61.22;101558.09;4977589;28;45462;-62
2023/04/19 02:35:28;;;;;;;;;18.00;16.75;;;;;12.83;61.30;101541.31;4962281;28;45412;-63
2023/04/19 02:37:54;;;;;;;;;17.25;16.25;;;;;12.88;61.17;101551.00;4984626;28;45385;-63
2023/04/19 02:40:21;;;;;;;;;15.50;12.25;;;;;12.92;61.12;101559.81;4977727;28;46853;-63
2023/04/19 02:42:47;;;;;;;;;17.50;16.75;;;;;12.77;60.96;101539.69;4969395;28;47168;-63
2023/04/19 02:45:12;;;;;;;;;18.75;18.75;;;;;12.81;61.25;101543.16;4961839;28;45330;-63
2023/04/19 02:47:37;;;;;;;;;17.25;16.50;;;;;12.77;61.19;101545.94;4979372;28;45311;-63
2023/04/19 02:50:03;;;;;;;;;18.75;18.00;;;;;12.60;61.18;101519.63;4979201;28;47499;-63
2023/04/19 02:52:29;;;;;;;;;14.50;14.50;;;;;12.66;61.38;101536.44;4965373;28;46690;-63
2023/04/19 02:54:54;;;;;;;;;17.75;16.75;;;;;12.85;61.18;101563.63;4959668;28;45670;-63
2023/04/19 02:57:19;;;;;;;;;16.25;15.75;;;;;12.76;61.32;101556.69;4970621;28;45420;-63
2023/04/19 02:59:45;;;;;;;;;17.50;17.50;;;;;12.81;61.34;101568.16;4960926;28;46815;-63
2023/04/19 03:02:10;;;;;;;;;15.50;14.50;;;;;12.78;61.30;101565.59;4979113;28;45342;-63
2023/04/19 03:04:36;;;;;;;;;19.75;17.75;;;;;12.65;61.50;101548.09;4993155;28;45247;-63
2023/04/19 03:07:01;;;;;;;;;13.00;13.00;;;;;12.72;61.50;101574.66;4977521;28;45446;-63
2023/04/19 03:09:27;;;;;;;;;23.75;19.50;;;;;12.67;61.46;101562.31;4978971;28;45330;-63
2023/04/19 03:11:52;;;;;;;;;20.25;17.50;;;;;12.55;61.44;101548.34;4981514;28;45320;-63
2023/04/19 03:14:17;;;;;;;;;21.00;18.00;;;;;12.68;61.76;101566.75;4981214;28;45400;-63
2023/04/19 03:16:43;;;;;;;;;18.25;17.25;;;;;12.68;61.72;101559.59;4982399;28;45636;-63
2023/04/19 03:19:08;;;;;;;;;17.75;17.75;;;;;12.57;61.59;101545.63;4969343;28;46187;-63
2023/04/19 03:21:33;;;;;;;;;17.50;17.50;;;;;12.50;61.66;101534.22;4981931;28;45407;-62
2023/04/19 03:24:00;;;;;;;;;21.50;19.75;;;;;12.60;61.78;101567.84;4979882;28;45392;-63
2023/04/19 03:26:26;;;;;;;;;16.00;14.00;;;;;12.49;61.70;101555.66;4981939;28;45644;-63
2023/04/19 03:28:51;;;;;;;;;18.75;18.50;;;;;12.44;61.88;101555.78;4981785;28;46178;-63
2023/04/19 03:31:17;;;;;;;;;18.50;16.75;;;;;12.50;61.84;101557.44;4982064;28;45403;-63
2023/04/19 03:33:42;;;;;;;;;14.50;12.75;;;;;12.41;62.07;101546.06;4980135;28;45483;-63
2023/04/19 03:36:08;;;;;;;;;19.25;17.00;;;;;12.25;62.37;101523.28;4989237;28;45359;-63
2023/04/19 03:38:33;;;;;;;;;17.25;14.75;;;;;12.38;61.98;101553.31;4982991;28;45328;-63
2023/04/19 03:40:59;;;;;;;;;19.75;17.75;;;;;12.36;62.16;101549.75;4981936;28;45688;-63
2023/04/19 03:43:24;;;;;;;;;14.00;13.25;;;;;12.41;62.37;101559.44;4981140;28;45455;-63
2023/04/19 03:45:50;;;;;;;;;19.00;17.00;;;;;12.34;62.43;101551.59;4964880;28;45338;-63
2023/04/19 03:48:15;;;;;;;;;21.75;18.50;;;;;12.24;62.41;101529.56;4961067;28;47310;-62
2023/04/19 03:50:40;;;;;;;;;22.25;22.00;;;;;12.15;62.32;101516.44;4973769;28;45461;-63
2023/04/19 03:53:06;;;;;;;;;19.75;17.75;;;;;12.38;62.40;101559.53;4980994;28;45647;-63
2023/04/19 03:55:31;;;;;;;;;15.75;15.75;;;;;12.35;62.41;101556.06;4954642;28;45737;-63
2023/04/19 03:57:57;;;;;;;;;21.00;19.00;;;;;12.29;62.60;101549.03;4979980;28;46094;-63
2023/04/19 04:00:22;;;;;;;;;21.75;21.75;;;;;12.09;62.49;101514.78;4981928;28;45286;-63
2023/04/19 04:02:47;;;;;;;;;16.75;13.25;;;;;12.05;62.87;101515.78;4979781;28;45534;-63
2023/04/19 04:05:13;;;;;;;;;21.00;18.00;;;;;12.07;62.58;101521.09;4981845;28;45402;-63
2023/04/19 04:07:38;;;;;;;;;21.75;17.00;;;;;12.22;62.83;101552.81;4981438;28;45623;-63
2023/04/19 04:10:04;;;;;;;;;12.75;11.25;;;;;12.22;63.17;101550.13;4981794;28;45523;-62
2023/04/19 04:12:30;;;;;;;;;22.50;20.50;;;;;12.19;62.97;101555.56;4980327;28;45538;-63
2023/04/19 04:14:55;;;;;;;;;21.00;20.00;;;;;12.10;63.05;101545.13;4981387;28;45646;-63
2023/04/19 04:17:21;;;;;;;;;24.25;21.00;;;;;12.12;63.23;101545.94;4981286;28;46229;-63
2023/04/19 04:19:46;;;;;;;;;22.75;20.25;;;;;11.97;63.29;101529.34;4981635;28;45395;-63
2023/04/19 04:22:11;;;;;;;;;20.50;19.00;;;;;12.01;63.26;101523.03;4979214;28;45579;-62
2023/04/19 04:24:41;;;;;;;;;21.75;21.75;;;;;12.05;63.06;101537.19;4980078;28;45680;-63
2023/04/19 04:27:08;;;;;;;;;20.75;19.75;;;;;12.03;63.22;101541.72;4980791;28;47429;-63
2023/04/19 04:29:35;;;;;;;;;22.00;19.75;;;;;12.09;63.38;101543.34;4981275;28;45702;-63
2023/04/19 04:32:01;;;;;;;;;20.25;16.75;;;;;12.09;63.80;101552.25;4981068;28;45472;-63
2023/04/19 04:34:27;;;;;;;;;16.00;15.75;;;;;12.10;63.61;101559.38;4980285;28;45539;-63
2023/04/19 04:36:52;;;;;;;;;15.50;14.50;;;;;12.02;63.88;101539.94;4988749;28;46595;-63
2023/04/19 04:39:17;;;;;;;;;17.00;16.25;;;;;12.05;63.38;101551.44;4981280;28;45374;-63
2023/04/19 04:41:43;;;;;;;;;22.00;19.25;;;;;12.10;63.57;101559.38;4980830;28;45422;-63
2023/04/19 04:44:08;;;;;;;;;21.75;19.00;;;;;11.84;63.42;101522.53;4980172;28;45371;-63
2023/04/19 04:46:34;;;;;;;;;23.00;21.00;;;;;12.04;63.66;101570.22;4981192;28;45477;-63
2023/04/19 04:49:00;;;;;;;;;20.75;17.50;;;;;11.90;63.72;101562.50;4963532;28;45446;-63
2023/04/19 04:51:26;;;;;;;;;16.75;15.25;;;;;11.90;63.66;101551.81;4980528;28;46005;-63
2023/04/19 04:53:51;;;;;;;;;17.50;16.50;;;;;11.96;63.73;101561.50;4978802;28;45729;-63
2023/04/19 04:56:16;;;;;;;;;20.25;19.50;;;;;11.86;63.72;101540.31;4967534;28;47944;-63
2023/04/19 04:58:42;;;;;;;;;21.00;19.75;;;;;11.81;63.66;101541.31;4980524;28;45290;-63
2023/04/19 05:01:07;;;;;;;;;28.50;22.25;;;;;11.94;63.84;101564.22;4980767;28;45348;-63
2023/04/19 05:03:32;;;;;;;;;21.00;20.75;;;;;11.92;63.83;101565.19;4981317;28;45310;-63
2023/04/19 05:05:57;;;;;;;;;21.50;18.00;;;;;11.87;63.73;101559.91;4980573;28;45424;-63
2023/04/19 05:08:26;;;;;;;;;22.50;18.75;;;;;11.89;64.43;101568.75;4980607;28;45664;-63
2023/04/19 05:10:51;;;;;;;;;21.50;20.75;;;;;11.81;63.92;101557.38;4980587;28;45450;-63
2023/04/19 05:13:17;;;;;;;;;21.00;18.75;;;;;11.89;64.20;101570.56;4979959;28;45369;-63
2023/04/19 05:15:42;;;;;;;;;27.75;22.25;;;;;11.87;64.31;101571.47;4978754;28;46823;-63
2023/04/19 05:18:07;;;;;;;;;21.50;21.25;;;;;11.85;64.18;101569.78;4980617;28;45312;-62
2023/04/19 05:20:33;;;;;;;;;25.00;21.25;;;;;11.76;64.12;101553.94;4980597;28;45734;-63
2023/04/19 05:23:00;;;;;;;;;20.75;19.50;;;;;11.84;64.28;101562.66;4977735;28;45707;-63
2023/04/19 05:25:26;;;;;;;;;27.25;25.00;;;;;11.69;64.06;101542.50;4962720;28;45757;-63
2023/04/19 05:27:51;;;;;;;;;22.00;20.50;;;;;11.87;64.27;101574.16;4979989;28;45674;-63
2023/04/19 05:30:17;;;;;;;;;24.50;21.25;;;;;11.80;64.39;101567.19;4980276;28;45439;-63
2023/04/19 05:32:42;;;;;;;;;24.00;23.25;;;;;11.90;64.09;101586.59;4979665;28;45286;-63
2023/04/19 05:35:08;;;;;;;;;17.50;17.50;;;;;11.80;64.45;101580.56;4979698;28;45470;-63
2023/04/19 05:37:35;;;;;;;;;30.25;25.00;;;;;11.80;64.55;101585.06;4988989;28;45530;-63
2023/04/19 05:40:04;;;;;;;;;20.50;15.00;;;;;11.74;64.43;101574.50;4978870;28;45511;-63
2023/04/19 05:42:29;;;;;;;;;24.75;23.00;;;;;11.82;64.69;101591.25;4975904;28;45338;-66
2023/04/19 05:44:55;;;;;;;;;24.00;24.00;;;;;11.48;64.64;101539.44;4981243;28;46051;-66
2023/04/19 05:47:20;;;;;;;;;24.50;20.50;;;;;11.58;64.64;101555.28;4973253;28;45295;-66
2023/04/19 05:49:46;;;;;;;;;25.75;22.00;;;;;11.61;64.54;101557.84;4966014;28;45226;-66
2023/04/19 05:52:11;;;;;;;;;28.75;25.25;;;;;11.58;64.66;101556.16;4961526;28;45761;-66
2023/04/19 05:54:36;;;;;;;;;27.00;22.00;;;;;11.84;64.62;101602.78;4978115;28;45648;-66
2023/04/19 05:57:02;;;;;;;;;22.50;21.25;;;;;11.75;64.65;101592.31;4976022;28;45461;-66
2023/04/19 05:59:28;;;;;;;;;26.00;22.00;;;;;11.71;64.63;101588.84;4978648;28;45433;-66
2023/04/19 06:01:54;;;;;;;;;27.25;22.75;;;;;11.60;64.65;101578.38;4960139;28;45571;-66
2023/04/19 06:04:20;;;;;;;;;21.25;20.25;;;;;11.64;64.49;101587.19;4980103;28;45456;-66
2023/04/19 06:06:46;;;;;;;;;27.50;24.50;;;;;11.60;64.95;101580.19;4966564;28;46011;-66
2023/04/19 06:09:12;;;;;;;;;21.25;21.25;;;;;11.41;65.13;101552.97;4976544;28;45396;-66
2023/04/19 06:11:38;;;;;;;;;28.25;22.50;;;;;11.60;64.96;101591.75;4976390;28;45448;-66
2023/04/19 06:14:06;;;;;;;;;21.50;20.75;;;;;11.44;65.23;101564.50;4977941;28;45496;-67
2023/04/19 06:16:31;;;;;;;;;27.00;22.25;;;;;11.50;65.12;101580.38;4978341;28;45458;-66
2023/04/19 06:18:56;;;;;;;;;29.50;25.75;;;;;11.50;65.04;101580.38;4959351;28;45853;-66
2023/04/19 06:21:22;;;;;;;;;26.25;21.75;;;;;11.50;65.26;101584.84;4979577;28;45634;-66
2023/04/19 06:23:47;;;;;;;;;22.00;22.00;;;;;11.60;65.30;101602.44;4967651;28;48034;-65
2023/04/19 06:26:13;;;;;;;;;19.50;14.75;;;;;11.64;65.50;101611.28;4979238;28;45499;-66
2023/04/19 06:28:38;;;;;;;;;27.00;25.50;;;;;11.66;65.58;101614.78;4977979;28;45457;-66
2023/04/19 06:31:04;;;;;;;;;24.25;21.75;;;;;11.47;65.51;101579.56;4978067;28;45590;-66
2023/04/19 06:33:30;;;;;;;;;30.00;26.25;;;;;11.61;65.09;101596.19;4977559;28;46238;-66
2023/04/19 06:35:55;;;;;;;;;26.50;22.50;;;;;11.50;65.41;101587.53;4982885;28;45942;-66
2023/04/19 06:38:20;;;;;;;;;32.00;30.50;;;;;11.52;65.26;101598.19;4978485;28;45386;-66
2023/04/19 06:40:46;;;;;;;;;26.00;24.50;;;;;11.65;65.62;101618.38;4961587;28;45564;-66
2023/04/19 06:43:11;;;;;;;;;23.50;21.75;;;;;11.46;65.32;101581.38;4964296;28;47711;-62
2023/04/19 06:45:37;;;;;;;;;24.25;23.50;;;;;11.55;65.39;101593.66;4955561;28;45436;-62
2023/04/19 06:48:02;;;;;;;;;26.75;24.50;;;;;11.66;65.91;101606.75;4976941;28;45745;-63
2023/04/19 06:50:27;;;;;;;;;20.75;20.75;;;;;11.79;65.56;101626.09;4978832;28;45440;-62
2023/04/19 06:52:53;;;;;;;;;24.75;21.75;;;;;11.80;65.64;101628.72;4976828;28;45451;-62
2023/04/19 06:55:18;;;;;;;;;25.00;22.00;;;;;11.73;65.86;101621.78;4960160;28;45355;-62
2023/04/19 06:57:43;;;;;;;;;31.50;27.00;;;;;11.59;65.79;101595.31;4959512;28;45650;-62
2023/04/19 07:00:10;;;;;;;;;21.50;20.00;;;;;11.66;65.82;101596.97;4976893;28;45456;-62
2023/04/19 07:02:35;;;;;;;;;32.25;26.75;;;;;11.75;65.76;101597.66;4991089;28;47083;-62
2023/04/19 07:05:01;;;;;;;;;21.25;19.25;;;;;11.95;65.72;101627.53;4978276;28;45271;-62
2023/04/19 07:07:26;;;;;;;;;26.25;23.75;;;;;11.87;65.48;101619.63;4977715;28;45502;-62
2023/04/19 07:09:52;;;;;;;;;28.25;26.25;;;;;11.81;65.30;101601.06;4989236;28;45608;-62
2023/04/19 07:12:17;;;;;;;;;28.75;28.25;;;;;11.97;65.60;101625.69;4978410;28;46505;-62
2023/04/19 07:14:42;;;;;;;;;27.00;26.75;;;;;11.72;65.78;101579.88;4980782;28;45686;-62
2023/04/19 07:17:08;;;;;;;;;23.25;21.00;;;;;11.80;65.36;101593.09;4962188;28;45938;-61
2023/04/19 07:19:34;;;;;;;;;27.25;23.25;;;;;12.00;65.84;101619.38;4965713;28;45878;-60
2023/04/19 07:21:59;;;;;;;;;29.00;25.25;;;;;12.09;66.04;101618.28;4958578;28;45501;-62
2023/04/19 07:24:26;;;;;;;;;21.50;20.50;;;;;11.93;66.18;101586.56;4973861;28;45410;-61
2023/04/19 07:26:52;;;;;;;;;27.75;25.50;;;;;12.16;65.40;101614.53;4979423;28;45479;-61
2023/04/19 07:29:17;;;;;;;;;28.25;25.75;;;;;11.99;65.76;101585.50;4954698;28;46266;-61
2023/04/19 07:31:43;;;;;;;;;26.50;22.25;;;;;12.22;65.61;101617.94;4977391;28;46400;-61
2023/04/19 07:34:09;;;;;;;;;25.25;23.50;;;;;12.37;65.64;101640.75;4970319;28;45523;-61
2023/04/19 07:36:35;;;;;;;;;24.00;22.25;;;;;12.39;65.68;101638.91;4973415;28;45456;-61
2023/04/19 07:39:01;;;;;;;;;26.50;25.00;;;;;12.46;65.18;101642.31;4972595;28;45399;-61
2023/04/19 07:41:26;;;;;;;;;31.00;29.50;;;;;12.41;65.17;101622.81;4963916;28;45261;-61
2023/04/19 07:43:52;;;;;;;;;18.00;17.25;;;;;12.59;65.10;101646.41;4966736;28;45529;-62
2023/04/19 07:46:17;;;;;;;;;30.00;27.00;;;;;12.61;65.06;101643.72;4978161;28;45662;-62
2023/04/19 07:48:43;;;;;;;;;26.00;24.75;;;;;12.68;65.11;101649.78;4976705;28;45508;-62
2023/04/19 07:51:13;;;;;;;;;29.75;29.50;;;;;12.66;64.54;101636.44;4946244;28;46693;-62
2023/04/19 07:53:40;;;;;;;;;37.50;28.00;;;;;12.71;64.94;101644.34;4969378;28;45333;-62
2023/04/19 07:56:07;;;;;;;;;28.50;26.25;;;;;12.73;64.79;101632.69;4978555;28;45447;-62
2023/04/19 07:58:33;;;;;;;;;34.75;29.75;;;;;12.70;64.68;101622.03;4981956;28;45435;-62
2023/04/19 08:00:58;;;;;;;;;23.50;23.50;;;;;12.85;64.71;101636.81;4979501;28;45988;-62
2023/04/19 08:03:24;;;;;;;;;26.75;23.50;;;;;12.92;64.94;101635.72;4982265;28;45551;-62
2023/04/19 08:05:49;;;;;;;;;24.75;24.00;;;;;13.03;64.64;101640.78;4983358;28;46902;-62
2023/04/19 08:08:14;;;;;;;;;25.00;22.50;;;;;13.11;64.84;101643.25;4980479;28;45463;-62
2023/04/19 08:10:40;;;;;;;;;27.25;26.75;;;;;13.18;64.54;101642.16;4980478;28;46184;-62
2023/04/19 08:13:05;;;;;;;;;27.75;26.50;;;;;13.21;64.15;101628.66;4980597;28;45393;-62
2023/04/19 08:15:32;;;;;;;;;30.75;28.00;;;;;13.34;64.19;101637.25;4980651;28;45666;-62
2023/04/19 08:17:58;;;;;;;;;27.25;26.50;;;;;13.38;63.73;101624.63;4981560;28;45390;-62
2023/04/19 08:20:23;;;;;;;;;20.00;20.00;;;;;13.44;64.10;101633.34;4979394;28;46055;-63
2023/04/19 08:22:48;;;;;;;;;26.75;23.00;;;;;13.57;64.02;101633.88;4981107;28;45310;-62
2023/04/19 08:25:14;;;;;;;;;24.25;22.50;;;;;13.64;63.97;101624.69;4980464;28;45321;-62
2023/04/19 08:27:39;;;;;;;;;26.75;25.25;;;;;13.74;63.09;101630.66;4980618;28;45473;-62
2023/04/19 08:30:06;;;;;;;;;23.75;23.50;;;;;13.75;62.96;101620.81;4980081;28;45280;-62
2023/04/19 08:32:32;;;;;;;;;26.00;25.75;;;;;13.77;63.16;101617.16;4980080;28;46066;-62
2023/04/19 08:34:57;;;;;;;;;22.00;19.75;;;;;13.86;62.70;101629.41;4977656;28;46064;-62
2023/04/19 08:37:23;;;;;;;;;24.75;22.25;;;;;13.86;63.14;101624.91;4986793;28;45305;-62
2023/04/19 08:39:48;;;;;;;;;29.25;28.50;;;;;13.91;63.08;101611.34;4980660;28;45897;-61
2023/04/19 08:42:13;;;;;;;;;24.00;21.50;;;;;13.97;62.78;101612.97;4980448;28;45337;-60
2023/04/19 08:44:39;;;;;;;;;31.25;24.50;;;;;14.07;62.53;101623.34;4977134;28;45476;-60
2023/04/19 08:47:06;;;;;;;;;26.00;23.50;;;;;14.12;62.63;101625.88;4980720;28;45495;-61
2023/04/19 08:49:37;;;;;;;;;27.50;25.50;;;;;14.14;62.29;101620.47;4980514;28;46091;-61
2023/04/19 08:52:03;;;;;;;;;23.50;22.75;;;;;14.20;62.16;101612.16;4980061;28;46012;-61
2023/04/19 08:54:29;;;;;;;;;23.00;23.00;;;;;14.11;62.13;101593.72;4960716;28;45539;-61
2023/04/19 08:56:58;;;;;;;;;24.25;22.75;;;;;14.27;62.03;101614.63;4971748;28;45377;-61
2023/04/19 08:59:23;;;;;;;;;24.50;24.50;;;;;14.34;61.83;101619.78;4979095;28;48252;-61
2023/04/19 09:01:49;;;;;;;;;17.50;16.25;;;;;14.33;61.52;101618.88;4979976;28;54551;-61
2023/04/19 09:04:14;;;;;;;;;24.50;21.00;;;;;14.32;61.60;101606.41;4982718;28;45548;-61
2023/04/19 09:06:40;;;;;;;;;22.50;21.50;;;;;14.43;61.77;101608.72;4979190;28;45293;-61
2023/04/19 09:09:26;;;;;;;;;21.75;19.00;;;;;14.56;61.60;101614.53;4978709;28;45935;-61
2023/04/19 09:11:51;;;;;;;;;25.00;25.00;;;;;14.67;61.84;101622.25;4978107;28;45607;-61
2023/04/19 09:14:18;;;;;;;;;21.75;21.75;;;;;14.67;61.18;101617.75;4960613;28;45333;-61
2023/04/19 09:16:44;;;;;;;;;25.75;23.25;;;;;14.67;61.02;101625.81;4962696;28;45998;-61
2023/04/19 09:19:15;;;;;;;;;32.75;26.00;;;;;14.72;61.30;101633.72;4980124;28;45461;-61
2023/04/19 09:21:41;;;;;;;;;25.75;23.50;;;;;14.76;60.82;101624.63;4979253;28;45318;-61
2023/04/19 09:24:07;;;;;;;;;24.25;21.50;;;;;14.83;60.73;101634.19;4980185;28;45415;-61
2023/04/19 09:26:34;;;;;;;;;28.00;24.25;;;;;14.85;60.65;101626.09;4979957;28;45425;-61
2023/04/19 09:29:06;;;;;;;;;26.25;23.25;;;;;14.86;60.72;101620.66;4979559;28;45954;-61
2023/04/19 09:31:34;;;;;;;;;24.25;23.25;;;;;14.89;60.78;101609.78;4979931;28;45347;-61
2023/04/19 09:34:14;;;;;;;;;20.00;20.00;;;;;15.01;60.67;101606.66;4978081;28;45400;-61
2023/04/19 09:36:40;;;;;;;;;26.25;24.25;;;;;15.09;60.33;101605.50;4982075;28;45559;-61
2023/04/19 09:39:06;;;;;;;;;26.75;25.00;;;;;15.05;60.09;101579.66;4978441;28;47203;-61
2023/04/19 09:41:36;;;;;;;;;24.25;20.50;;;;;15.19;60.15;101594.31;4978378;28;45436;-61
2023/04/19 09:44:14;;;;;;;;;22.25;20.50;;;;;15.28;59.76;101594.91;4979690;28;45453;-61
2023/04/19 09:46:41;;;;;;;;;27.75;23.00;;;;;15.37;60.06;101605.34;4978827;28;45503;-61
2023/04/19 09:49:16;;;;;;;;;27.00;25.75;;;;;15.45;59.77;101588.88;4979163;28;46598;-61
2023/04/19 09:51:41;;;;;;;;;23.00;21.25;;;;;15.55;59.87;101591.16;4967029;28;45350;-61
2023/04/19 09:54:10;;;;;;;;;20.67;20.67;;;;;15.62;59.32;101589.09;4983818;28;45401;-61
2023/04/19 09:56:36;;;;;;;;;26.25;21.25;;;;;15.65;59.47;101582.69;4983965;28;45515;-62
2023/04/19 09:59:03;;;;;;;;;24.50;22.00;;;;;15.73;59.00;101583.25;4979477;28;46409;-61
2023/04/19 10:01:34;;;;;;;;;21.50;21.25;;;;;15.71;58.91;101583.31;4978723;28;45320;-61
2023/04/19 10:04:01;;;;;;;;;18.75;18.75;;;;;15.73;58.52;101575.19;4977964;28;45464;-61
2023/04/19 10:06:26;;;;;;;;;19.75;19.75;;;;;15.82;58.76;101577.56;4979461;28;45519;-61
2023/04/19 10:08:54;;;;;;;;;22.00;18.75;;;;;15.81;58.35;101567.72;4978108;28;46158;-61
2023/04/19 10:11:26;;;;;;;;;22.00;20.50;;;;;15.71;58.63;101537.56;4978385;28;45640;-62
2023/04/19 10:13:55;;;;;;;;;21.25;20.75;;;;;16.01;58.12;101568.72;4979271;28;45391;-61
2023/04/19 10:16:21;;;;;;;;;19.25;19.00;;;;;16.08;58.27;101575.59;4979773;28;45487;-60
2023/04/19 10:18:48;;;;;;;;;23.50;20.75;;;;;16.14;58.21;101561.88;4993903;28;45415;-61
2023/04/19 10:21:14;;;;;;;;;20.25;18.25;;;;;16.20;57.52;101561.56;4984334;28;45723;-61
2023/04/19 10:23:40;;;;;;;;;20.75;19.00;;;;;16.20;57.20;101558.03;4979781;28;45385;-61
2023/04/19 10:26:06;;;;;;;;;20.50;18.50;;;;;16.01;56.92;101522.94;4978557;28;45479;-61
2023/04/19 10:28:34;;;;;;;;;15.75;15.00;;;;;16.32;56.37;101570.94;4978674;28;45835;-61
2023/04/19 10:31:02;;;;;;;;;19.25;19.00;;;;;16.36;55.78;101555.56;4978207;28;45444;-61
2023/04/19 10:33:30;;;;;;;;;18.75;17.00;;;;;16.46;55.46;101567.69;4961983;28;45393;-61
2023/04/19 10:35:58;;;;;;;;;19.00;17.75;;;;;16.42;56.25;101547.19;4978554;28;45479;-61
2023/04/19 10:38:36;;;;;;;;;24.00;21.75;;;;;16.60;56.17;101561.66;4976383;28;46635;-61
2023/04/19 10:41:02;;;;;;;;;18.25;16.50;;;;;16.61;56.29;101545.44;4976695;28;45684;-62
2023/04/19 10:43:33;;;;;;;;;20.75;20.50;;;;;16.67;56.33;101539.78;4993732;28;45586;-64
2023/04/19 10:46:34;;;;;;;;;18.00;16.75;;;;;16.61;56.37;101528.38;4974854;28;45408;-65
2023/04/19 10:49:02;;;;;;;;;23.25;23.25;;;;;16.69;56.20;101526.22;4973979;28;45794;-65
2023/04/19 10:51:31;;;;;;;;;22.00;21.25;;;;;16.83;56.55;101533.66;4977559;28;45682;-65
2023/04/19 10:54:04;;;;;;;;;14.00;12.50;;;;;16.84;56.45;101524.66;4976372;28;45541;-64
2023/04/19 10:56:38;;;;;;;;;17.75;17.75;;;;;17.03;56.17;101541.72;4963435;28;45671;-65
2023/04/19 10:59:14;;;;;;;;;19.25;18.75;;;;;17.12;56.29;101535.03;4956673;28;47819;-65
2023/04/19 11:01:44;;;;;;;;;24.00;23.00;;;;;17.18;55.90;101544.66;4974204;28;45827;-61
2023/04/19 11:04:26;;;;;;;;;18.00;18.00;;;;;17.21;55.82;101531.91;4975274;28;45479;-61
2023/04/19 11:06:51;;;;;;;;;21.25;21.25;;;;;17.25;55.33;101546.13;4974432;28;45480;-61